KORF/ORF METAR and TAF weather

Enter ICAO airport designator
Station Type Date Time Source
KORF METAR 2019/06/26 19:51 UTC NOAA

KORF 261951Z 03006KT 10SM CLR 31/12 A3007 RMK AO2 SLP182 T03110122


Station Type Date Time Source
KORF Decoded METAR 2019/06/26 19:51 UTC NOAA

NORFOLK INTERNATIONAL AIRPORT , VA, United States (KORF) 36-54N 076-12W 14M
Jun 26, 2019 - 03:51 PM EDT / 2019.06.26 1951 UTC
Wind: from the NNE (030 degrees) at 7 MPH (6 KT):0
Visibility: 10 mile(s):0
Sky conditions: clear
Temperature: 88.0 F (31.1 C)
Dew Point: 54.0 F (12.2 C)
Relative Humidity: 31%
Pressure (altimeter): 30.07 in. Hg (1018 hPa)
ob: KORF 261951Z 03006KT 10SM CLR 31/12 A3007 RMK AO2 SLP182 T03110122
cycle: 20

Station Type Date Time Source
KORF TAF 2019/06/26 18:22 UTC NOAA

TAF KORF 261720Z 2618/2718 36008KT P6SM SCT050
FM270000 VRB04KT P6SM BKN250

Example: see airport list